createdAt,value
2022-12-16T00:00:23.619Z,-7.86
2022-12-16T00:02:52.836Z,-8.02
2022-12-16T00:05:22.196Z,-7.86
2022-12-16T00:07:50.532Z,-7.69
2022-12-16T00:10:18.774Z,-7.59
2022-12-16T00:12:48.570Z,-7.47
2022-12-16T00:15:17.042Z,-7.42
2022-12-16T00:17:45.277Z,-7.44
2022-12-16T00:20:14.121Z,-7.72
2022-12-16T00:22:42.407Z,-7.51
2022-12-16T00:25:11.027Z,-7.48
2022-12-16T00:27:39.235Z,-7.62
2022-12-16T00:30:11.159Z,-7.54
2022-12-16T00:32:39.618Z,-7.51
2022-12-16T00:35:08.397Z,-7.53
2022-12-16T00:37:36.650Z,-7.57
2022-12-16T00:40:06.091Z,-7.54
2022-12-16T00:42:34.336Z,-7.60
2022-12-16T00:45:02.563Z,-7.58
2022-12-16T00:47:32.255Z,-7.62
2022-12-16T00:50:00.469Z,-7.62
2022-12-16T00:52:29.088Z,-7.49
2022-12-16T00:54:57.418Z,-7.40
2022-12-16T00:57:26.018Z,-7.65
2022-12-16T00:59:54.478Z,-7.33
2022-12-16T01:02:23.623Z,-7.28
2022-12-16T01:04:53.652Z,-7.24
2022-12-16T01:07:23.078Z,-7.19
2022-12-16T01:09:51.333Z,-7.20
2022-12-16T01:12:20.077Z,-7.09
2022-12-16T01:14:48.331Z,-7.20
2022-12-16T01:17:16.617Z,-7.02
2022-12-16T01:19:44.826Z,-6.98
2022-12-16T01:22:15.118Z,-6.92
2022-12-16T01:24:45.629Z,-6.99
2022-12-16T01:27:14.477Z,-7.02
2022-12-16T01:29:43.211Z,-6.98
2022-12-16T01:32:14.689Z,-7.01
2022-12-16T01:34:47.382Z,-7.06
2022-12-16T01:37:24.005Z,-6.97
2022-12-16T01:39:52.510Z,-6.90
2022-12-16T01:42:23.960Z,-6.77
2022-12-16T01:44:55.163Z,-6.69
2022-12-16T01:47:29.171Z,-6.78
2022-12-16T01:50:03.990Z,-6.44
2022-12-16T01:52:38.913Z,-6.41
2022-12-16T01:55:16.965Z,-6.31
2022-12-16T01:57:51.465Z,-6.25
2022-12-16T02:00:23.756Z,-6.83
2022-12-16T02:02:55.067Z,-6.27
2022-12-16T02:05:24.558Z,-6.19
2022-12-16T02:08:02.204Z,-6.12
2022-12-16T02:10:48.836Z,-6.35
2022-12-16T02:13:27.533Z,-6.53
2022-12-16T02:16:06.764Z,-6.18
2022-12-16T02:18:50.963Z,-6.00
2022-12-16T02:21:40.266Z,-6.17
2022-12-16T02:24:53.657Z,-6.56
2022-12-16T02:28:00.748Z,-6.02
2022-12-16T02:31:16.792Z,-5.99
2022-12-16T02:34:03.320Z,-5.99
2022-12-16T02:36:56.520Z,-6.12
2022-12-16T02:39:36.511Z,-6.01
2022-12-16T02:42:14.482Z,-6.03
2022-12-16T02:44:56.101Z,-5.93
2022-12-16T02:47:26.042Z,-5.91
2022-12-16T02:49:56.157Z,-5.92
2022-12-16T02:52:28.291Z,-5.89
2022-12-16T02:55:02.563Z,-6.06
2022-12-16T02:58:03.749Z,-6.05
2022-12-16T03:00:45.881Z,-5.81
2022-12-16T03:03:24.321Z,-5.82
2022-12-16T03:05:56.447Z,-5.75
2022-12-16T03:08:34.017Z,-5.74
2022-12-16T03:11:06.862Z,-5.78
2022-12-16T03:13:44.162Z,-5.76
2022-12-16T03:16:17.452Z,-5.79
2022-12-16T03:19:01.602Z,-5.74
2022-12-16T03:21:39.512Z,-5.98
2022-12-16T03:24:13.874Z,-5.74
2022-12-16T03:26:53.863Z,-5.71
2022-12-16T03:29:37.857Z,-5.63
2022-12-16T03:32:13.734Z,-5.66
2022-12-16T03:34:51.927Z,-5.67
2022-12-16T03:37:25.813Z,-5.77
2022-12-16T03:39:59.702Z,-5.55
2022-12-16T03:42:28.660Z,-5.71
2022-12-16T03:44:58.171Z,-5.44
2022-12-16T03:47:29.793Z,-5.36
2022-12-16T03:49:59.513Z,-5.30
2022-12-16T03:52:27.717Z,-5.30
2022-12-16T03:54:56.012Z,-5.32
2022-12-16T03:57:24.210Z,-5.31
2022-12-16T03:59:52.442Z,-5.38
2022-12-16T04:02:20.873Z,-5.44
2022-12-16T04:04:49.140Z,-5.41
2022-12-16T04:07:21.477Z,-5.47
2022-12-16T04:09:51.245Z,-5.25
2022-12-16T04:12:38.058Z,-5.20
2022-12-16T04:15:25.360Z,-5.49
2022-12-16T04:18:11.028Z,-5.39
2022-12-16T04:21:02.993Z,-5.13
2022-12-16T04:23:52.644Z,-5.12
2022-12-16T04:26:21.863Z,-5.23
2022-12-16T04:28:50.064Z,-5.17
2022-12-16T04:31:21.356Z,-5.11
2022-12-16T04:34:07.444Z,-5.12
2022-12-16T04:36:53.051Z,-5.64
2022-12-16T04:39:40.360Z,-5.20
2022-12-16T04:42:26.299Z,-5.45
2022-12-16T04:45:12.136Z,-5.24
2022-12-16T04:47:58.095Z,-5.61
2022-12-16T04:50:43.778Z,-5.22
2022-12-16T04:53:25.954Z,-5.26
2022-12-16T04:56:18.552Z,-5.38
2022-12-16T04:59:04.144Z,-5.29
2022-12-16T05:01:49.795Z,-5.22
2022-12-16T05:04:35.919Z,-5.26
2022-12-16T05:07:21.772Z,-5.62
2022-12-16T05:10:07.884Z,-5.70
2022-12-16T05:12:55.097Z,-5.43
2022-12-16T05:15:41.214Z,-6.18
2022-12-16T05:18:29.068Z,-5.38
2022-12-16T05:21:16.457Z,-5.35
2022-12-16T05:24:02.292Z,-5.46
2022-12-16T05:26:48.162Z,-5.40
2022-12-16T05:29:35.728Z,-5.43
2022-12-16T05:32:21.553Z,-5.36
2022-12-16T05:35:18.807Z,-5.61
2022-12-16T05:38:04.785Z,-5.42
2022-12-16T05:40:50.636Z,-5.65
2022-12-16T05:43:36.933Z,-5.73
2022-12-16T05:46:27.116Z,-5.60
2022-12-16T05:49:18.375Z,-6.18
2022-12-16T05:52:04.070Z,-5.72
2022-12-16T05:54:50.076Z,-5.68
2022-12-16T05:57:36.005Z,-5.63
2022-12-16T06:00:28.101Z,-5.61
2022-12-16T06:03:15.666Z,-5.68
2022-12-16T06:06:01.719Z,-6.27
2022-12-16T06:08:47.498Z,-5.79
2022-12-16T06:11:33.630Z,-6.24
2022-12-16T06:14:19.585Z,-5.79
2022-12-16T06:17:02.056Z,-5.77
2022-12-16T06:19:49.212Z,-5.76
2022-12-16T06:22:35.482Z,-5.78
2022-12-16T06:25:21.949Z,-5.77
2022-12-16T06:28:10.637Z,-6.11
2022-12-16T06:30:56.907Z,-6.11
2022-12-16T06:33:43.079Z,-5.84
2022-12-16T06:36:30.990Z,-6.05
2022-12-16T06:39:16.820Z,-5.80
2022-12-16T06:42:02.875Z,-5.86
2022-12-16T06:44:49.234Z,-5.89
2022-12-16T06:47:35.207Z,-5.90
2022-12-16T06:50:20.944Z,-5.90
2022-12-16T06:53:08.135Z,-5.88
2022-12-16T06:55:54.227Z,-5.84
2022-12-16T06:58:42.346Z,-5.84
2022-12-16T07:01:28.791Z,-6.01
2022-12-16T07:04:14.738Z,-5.83
2022-12-16T07:07:01.103Z,-5.81
2022-12-16T07:09:48.672Z,-5.79
2022-12-16T07:12:34.455Z,-5.94
2022-12-16T07:15:20.408Z,-5.73
2022-12-16T07:18:06.382Z,-5.67
2022-12-16T07:20:52.038Z,-5.96
2022-12-16T07:23:43.278Z,-5.70
2022-12-16T07:26:30.430Z,-5.52
2022-12-16T07:29:16.437Z,-5.46
2022-12-16T07:32:02.463Z,-5.38
2022-12-16T07:34:50.273Z,-5.40
2022-12-16T07:37:36.756Z,-5.30
2022-12-16T07:40:23.791Z,-5.24
2022-12-16T07:43:11.478Z,-5.20
2022-12-16T07:45:57.523Z,-5.16
2022-12-16T07:48:44.040Z,-5.57
2022-12-16T07:51:35.235Z,-5.16
2022-12-16T07:54:21.491Z,-5.30
2022-12-16T07:57:07.419Z,-5.34
2022-12-16T07:59:54.504Z,-5.52
2022-12-16T08:02:40.994Z,-5.51
2022-12-16T08:05:27.295Z,-5.54
2022-12-16T08:08:13.386Z,-5.95
2022-12-16T08:11:00.020Z,-5.73
2022-12-16T08:13:45.905Z,-5.70
2022-12-16T08:16:33.133Z,-5.58
2022-12-16T08:19:19.250Z,-5.76
2022-12-16T08:22:05.218Z,-5.59
2022-12-16T08:27:57.409Z,-5.64
2022-12-16T08:30:43.283Z,-5.62
2022-12-16T08:33:30.489Z,-5.57
2022-12-16T08:36:17.630Z,-5.74
2022-12-16T08:39:03.505Z,-5.42
2022-12-16T08:41:49.539Z,-5.39
2022-12-16T08:44:35.428Z,-5.30
2022-12-16T08:47:21.619Z,-5.17
2022-12-16T08:50:09.164Z,-5.11
2022-12-16T08:52:54.942Z,-5.40
2022-12-16T08:55:41.107Z,-5.49
2022-12-16T08:58:27.362Z,-4.77
2022-12-16T09:01:13.213Z,-4.64
2022-12-16T09:04:04.522Z,-4.66
2022-12-16T09:06:51.568Z,-4.73
2022-12-16T09:09:37.605Z,-4.57
2022-12-16T09:12:23.987Z,-4.32
2022-12-16T09:15:09.941Z,-4.41
2022-12-16T09:17:55.915Z,-4.45
2022-12-16T09:20:42.008Z,-4.49
2022-12-16T09:23:29.798Z,-4.49
2022-12-16T09:26:16.150Z,-4.67
2022-12-16T09:29:01.945Z,-4.47
2022-12-16T09:31:53.088Z,-4.35
2022-12-16T09:34:38.961Z,-4.34
2022-12-16T09:37:24.676Z,-4.31
2022-12-16T09:40:12.108Z,-4.73
2022-12-16T09:43:09.659Z,-4.24
2022-12-16T09:46:07.889Z,-4.24
2022-12-16T09:49:06.875Z,-4.37
2022-12-16T09:51:55.886Z,-4.03
2022-12-16T09:54:48.481Z,-3.98
2022-12-16T09:57:36.870Z,-4.39
2022-12-16T10:00:26.893Z,-4.59
2022-12-16T10:03:17.702Z,-4.49
2022-12-16T10:06:17.194Z,-4.47
2022-12-16T10:09:16.240Z,-4.47
2022-12-16T10:12:13.347Z,-4.58
2022-12-16T10:15:11.740Z,-4.66
2022-12-16T10:18:04.756Z,-4.86
2022-12-16T10:21:01.659Z,-4.71
2022-12-16T10:23:58.157Z,-5.07
2022-12-16T10:26:54.739Z,-4.92
2022-12-16T10:29:48.745Z,-5.11
2022-12-16T10:32:43.572Z,-5.17
2022-12-16T10:35:41.163Z,-5.21
2022-12-16T10:38:50.802Z,-5.75
2022-12-16T10:41:38.206Z,-5.49
2022-12-16T10:44:36.067Z,-5.79
2022-12-16T10:47:22.282Z,-5.68
2022-12-16T10:50:13.201Z,-5.79
2022-12-16T10:53:19.589Z,-5.80
2022-12-16T10:56:25.247Z,-5.77
2022-12-16T10:59:30.025Z,-5.79
2022-12-16T11:02:18.422Z,-5.89
2022-12-16T11:05:20.576Z,-6.04
2022-12-16T11:08:12.163Z,-5.79
2022-12-16T11:11:00.412Z,-5.80
2022-12-16T11:13:49.564Z,-6.00
2022-12-16T11:16:42.303Z,-5.65
2022-12-16T11:19:40.408Z,-5.55
2022-12-16T11:22:33.181Z,-5.46
2022-12-16T11:25:35.403Z,-5.42
2022-12-16T11:28:38.136Z,-5.34
2022-12-16T11:31:31.391Z,-5.26
2022-12-16T11:34:21.413Z,-5.08
2022-12-16T11:37:11.141Z,-5.09
2022-12-16T11:39:59.896Z,-5.04
2022-12-16T11:42:52.282Z,-4.99
2022-12-16T11:45:40.790Z,-5.14
2022-12-16T11:48:40.537Z,-4.85
2022-12-16T11:51:34.676Z,-4.85
2022-12-16T11:54:31.663Z,-5.76
2022-12-16T11:57:21.729Z,-4.93
2022-12-16T12:00:18.913Z,-4.91
2022-12-16T12:03:20.825Z,-5.01
2022-12-16T12:06:26.198Z,-5.04
2022-12-16T12:09:21.650Z,-5.00
2022-12-16T12:12:15.909Z,-4.99
2022-12-16T12:15:12.320Z,-5.01
2022-12-16T12:18:10.113Z,-5.26
2022-12-16T12:21:08.986Z,-5.52
2022-12-16T12:24:11.480Z,-5.11
2022-12-16T12:27:09.569Z,-5.47
2022-12-16T12:30:17.086Z,-5.35
2022-12-16T12:33:18.305Z,-5.46
2022-12-16T12:36:20.465Z,-5.38
2022-12-16T12:39:30.003Z,-6.12
2022-12-16T12:42:48.934Z,-5.77
2022-12-16T12:46:06.261Z,-5.54
2022-12-16T12:49:04.423Z,-4.93
2022-12-16T13:02:48.645Z,-3.93
2022-12-16T13:05:36.151Z,-3.72
2022-12-16T13:09:01.744Z,-3.53
2022-12-16T13:11:47.921Z,-3.49
2022-12-16T13:15:13.353Z,-3.68
2022-12-16T13:18:47.494Z,-3.64
2022-12-16T13:22:03.463Z,-3.60
2022-12-16T13:25:06.875Z,-3.52
2022-12-16T13:28:14.556Z,-3.47
2022-12-16T13:31:25.328Z,-3.50
2022-12-16T13:34:18.104Z,-3.37
2022-12-16T13:37:12.561Z,-3.23
2022-12-16T13:40:02.600Z,-3.25
2022-12-16T13:43:11.184Z,-3.19
2022-12-16T13:46:00.758Z,-3.24
2022-12-16T13:48:55.290Z,-3.16
2022-12-16T13:52:32.906Z,-3.02
2022-12-16T13:55:34.640Z,-2.94
2022-12-16T13:58:40.357Z,-3.04
2022-12-16T14:01:35.068Z,-2.83
2022-12-16T14:04:22.146Z,-2.78
2022-12-16T14:07:09.501Z,-3.20
2022-12-16T14:09:59.923Z,-2.79
2022-12-16T14:13:11.797Z,-2.64
2022-12-16T14:16:14.842Z,-2.63
2022-12-16T14:19:24.523Z,-2.73
2022-12-16T14:22:18.828Z,-2.54
2022-12-16T14:25:05.409Z,-2.54
2022-12-16T14:27:53.894Z,-2.72
2022-12-16T14:30:44.580Z,-2.72
2022-12-16T14:33:42.145Z,-2.74
2022-12-16T14:36:49.293Z,-2.77
2022-12-16T14:39:42.069Z,-3.02
2022-12-16T14:42:41.297Z,-2.91
2022-12-16T14:45:52.558Z,-2.77
2022-12-16T14:48:49.889Z,-2.83
2022-12-16T14:51:43.719Z,-2.80
2022-12-16T14:54:42.743Z,-2.84
2022-12-16T14:57:34.894Z,-2.87
2022-12-16T15:00:34.430Z,-3.00
2022-12-16T15:03:33.235Z,-2.83
2022-12-16T15:06:23.658Z,-2.95
2022-12-16T15:09:15.291Z,-3.42
2022-12-16T15:12:03.100Z,-3.28
2022-12-16T15:14:53.997Z,-3.31
2022-12-16T15:17:43.657Z,-3.12
2022-12-16T15:20:40.726Z,-3.85
2022-12-16T15:23:37.691Z,-3.31
2022-12-16T15:26:24.806Z,-3.38
2022-12-16T15:29:11.109Z,-3.25
2022-12-16T15:32:03.194Z,-3.24
2022-12-16T15:35:06.663Z,-3.24
2022-12-16T15:38:04.209Z,-3.23
2022-12-16T15:40:57.486Z,-3.30
2022-12-16T15:43:47.938Z,-3.16
2022-12-16T15:46:39.992Z,-3.52
2022-12-16T15:49:38.989Z,-3.28
2022-12-16T15:52:53.620Z,-3.45
2022-12-16T15:55:47.948Z,-3.34
2022-12-16T15:58:43.451Z,-3.95
2022-12-16T16:01:32.440Z,-3.55
2022-12-16T16:04:18.887Z,-3.54
2022-12-16T16:07:08.741Z,-3.83
2022-12-16T16:09:56.319Z,-3.52
2022-12-16T16:12:44.472Z,-3.75
2022-12-16T16:15:32.756Z,-3.49
2022-12-16T16:18:22.831Z,-3.52
2022-12-16T16:21:10.025Z,-3.74
2022-12-16T16:23:56.413Z,-3.56
2022-12-16T16:26:47.032Z,-3.51
2022-12-16T16:29:34.057Z,-3.48
2022-12-16T16:32:23.538Z,-3.48
2022-12-16T16:35:09.456Z,-3.70
2022-12-16T16:37:55.507Z,-3.60
2022-12-16T16:40:50.793Z,-3.63
2022-12-16T16:43:37.665Z,-3.64
2022-12-16T16:46:45.917Z,-3.84
2022-12-16T16:49:39.017Z,-3.66
2022-12-16T16:52:29.872Z,-3.71
2022-12-16T16:55:15.879Z,-3.82
2022-12-16T16:58:02.277Z,-3.79
2022-12-16T17:00:48.479Z,-3.67
2022-12-16T17:03:37.891Z,-3.58
2022-12-16T17:06:24.857Z,-3.67
2022-12-16T17:09:10.828Z,-3.98
2022-12-16T17:11:58.012Z,-3.68
2022-12-16T17:14:44.070Z,-3.86
2022-12-16T17:17:29.679Z,-3.62
2022-12-16T17:20:16.864Z,-3.60
2022-12-16T17:23:02.747Z,-4.80
2022-12-16T17:25:48.692Z,-3.54
2022-12-16T17:28:34.969Z,-3.58
2022-12-16T17:31:21.327Z,-3.94
2022-12-16T17:34:07.681Z,-3.65
2022-12-16T17:36:54.880Z,-3.47
2022-12-16T17:39:41.037Z,-3.51
2022-12-16T17:42:27.083Z,-3.82
2022-12-16T17:45:13.339Z,-3.60
2022-12-16T17:48:01.871Z,-3.49
2022-12-16T17:50:48.274Z,-3.96
2022-12-16T17:53:35.998Z,-3.50
2022-12-16T17:56:23.203Z,-3.55
2022-12-16T17:59:11.043Z,-3.61
2022-12-16T18:01:57.441Z,-3.54
2022-12-16T18:04:43.575Z,-3.49
2022-12-16T18:07:29.646Z,-3.44
2022-12-16T18:10:18.280Z,-3.36
2022-12-16T18:13:04.399Z,-3.64
2022-12-16T18:15:56.187Z,-3.50
2022-12-16T18:18:46.157Z,-3.53
2022-12-16T18:21:33.368Z,-3.73
2022-12-16T18:24:24.793Z,-3.65
2022-12-16T18:27:12.576Z,-3.57
2022-12-16T18:29:58.372Z,-3.73
2022-12-16T18:32:44.499Z,-3.74
2022-12-16T18:35:30.424Z,-3.69
2022-12-16T18:38:16.789Z,-3.52
2022-12-16T18:41:03.018Z,-3.63
2022-12-16T18:43:50.628Z,-3.51
2022-12-16T18:46:36.547Z,-4.79
2022-12-16T18:49:22.928Z,-3.87
2022-12-16T18:52:09.673Z,-3.43
2022-12-16T18:54:55.601Z,-3.40
2022-12-16T18:57:41.702Z,-3.35
2022-12-16T19:00:30.491Z,-3.32
2022-12-16T19:03:16.829Z,-3.37
2022-12-16T19:06:03.334Z,-3.51
2022-12-16T19:08:49.868Z,-3.33
2022-12-16T19:11:35.977Z,-3.39
2022-12-16T19:14:22.117Z,-3.48
2022-12-16T19:17:09.769Z,-3.71
2022-12-16T19:19:57.529Z,-3.59
2022-12-16T19:22:43.833Z,-4.46
2022-12-16T19:25:29.869Z,-4.36
2022-12-16T19:28:15.999Z,-3.61
2022-12-16T19:31:02.213Z,-3.51
2022-12-16T19:33:49.681Z,-3.75
2022-12-16T19:36:35.680Z,-3.90
2022-12-16T19:39:21.946Z,-3.81
2022-12-16T19:42:07.944Z,-4.44
2022-12-16T19:44:56.047Z,-3.56
2022-12-16T19:47:42.306Z,-3.33
2022-12-16T19:50:29.661Z,-3.46
2022-12-16T19:53:15.567Z,-3.31
2022-12-16T19:56:01.709Z,-3.63
2022-12-16T19:58:47.731Z,-3.86
2022-12-16T20:01:33.651Z,-3.83
2022-12-16T20:04:19.606Z,-3.68
2022-12-16T20:07:09.410Z,-3.76
2022-12-16T20:09:56.185Z,-3.47
2022-12-16T20:12:42.354Z,-3.53
2022-12-16T20:15:28.808Z,-4.04
2022-12-16T20:18:14.819Z,-3.51
2022-12-16T20:21:00.921Z,-3.46
2022-12-16T20:23:48.675Z,-3.52
2022-12-16T20:26:34.682Z,-3.43
2022-12-16T20:29:20.749Z,-3.50
2022-12-16T20:32:06.785Z,-3.45
2022-12-16T20:34:52.806Z,-3.68
2022-12-16T20:37:39.725Z,-3.49
2022-12-16T20:40:28.811Z,-3.66
2022-12-16T20:43:14.983Z,-3.69
2022-12-16T20:46:01.106Z,-3.31
2022-12-16T20:48:47.146Z,-3.59
2022-12-16T20:51:32.851Z,-3.25
2022-12-16T20:54:18.533Z,-3.34
2022-12-16T20:57:09.550Z,-3.75
2022-12-16T20:59:58.558Z,-3.31
2022-12-16T21:02:44.674Z,-3.57
2022-12-16T21:05:45.324Z,-3.51
2022-12-16T21:08:30.941Z,-3.39
2022-12-16T21:11:16.986Z,-3.32
2022-12-16T21:14:07.074Z,-3.30
2022-12-16T21:16:53.619Z,-3.60
2022-12-16T21:19:43.106Z,-3.23
2022-12-16T21:22:29.585Z,-3.50
2022-12-16T21:25:16.736Z,-3.31
2022-12-16T21:28:05.970Z,-3.31
2022-12-16T21:30:53.723Z,-3.30
2022-12-16T21:33:40.216Z,-3.32
2022-12-16T21:36:28.072Z,-3.32
2022-12-16T21:39:13.873Z,-3.33
2022-12-16T21:42:00.146Z,-3.49
2022-12-16T21:44:46.948Z,-3.68
2022-12-16T21:47:34.451Z,-3.47
2022-12-16T21:50:21.567Z,-3.38
2022-12-16T21:53:08.528Z,-3.35
2022-12-16T21:55:55.898Z,-3.39
2022-12-16T21:58:42.757Z,-3.29
2022-12-16T22:01:28.909Z,-3.37
2022-12-16T22:04:16.144Z,-3.21
2022-12-16T22:07:02.525Z,-3.27
2022-12-16T22:09:48.810Z,-3.30
2022-12-16T22:12:35.282Z,-3.29
2022-12-16T22:15:21.451Z,-3.33
2022-12-16T22:18:08.111Z,-3.33
2022-12-16T22:20:55.062Z,-3.34
2022-12-16T22:23:48.364Z,-3.30
2022-12-16T22:26:34.519Z,-3.32
2022-12-16T22:29:20.652Z,-3.38
2022-12-16T22:32:06.695Z,-4.04
2022-12-16T22:34:57.884Z,-3.47
2022-12-16T22:37:45.320Z,-3.24
2022-12-16T22:40:31.363Z,-3.23
2022-12-16T22:43:17.324Z,-3.23
2022-12-16T22:46:03.413Z,-3.24
2022-12-16T22:48:51.293Z,-3.34
2022-12-16T22:51:37.920Z,-3.32
2022-12-16T22:54:25.470Z,-3.20
2022-12-16T22:57:11.575Z,-4.22
2022-12-16T22:59:57.368Z,-3.51
2022-12-16T23:02:43.541Z,-3.26
2022-12-16T23:05:29.852Z,-3.20
2022-12-16T23:08:15.852Z,-3.23
2022-12-16T23:11:03.012Z,-3.23
2022-12-16T23:13:49.053Z,-3.20
2022-12-16T23:16:49.585Z,-3.70
2022-12-16T23:19:37.793Z,-3.43
2022-12-16T23:22:23.673Z,-3.27
2022-12-16T23:25:09.844Z,-3.27
2022-12-16T23:27:57.054Z,-3.27
2022-12-16T23:30:42.951Z,-3.35
2022-12-16T23:33:28.847Z,-3.33
2022-12-16T23:36:15.080Z,-4.00
2022-12-16T23:39:01.053Z,-3.16
2022-12-16T23:41:47.088Z,-3.12
2022-12-16T23:44:34.592Z,-3.29
2022-12-16T23:47:20.526Z,-3.07
2022-12-16T23:50:08.659Z,-3.05
2022-12-16T23:52:57.356Z,-3.12
2022-12-16T23:55:43.192Z,-3.07
2022-12-16T23:58:29.502Z,-3.05
